Terminal Aerodrome Forecast
Issued by NWS

Home | Current Version | Previous Version | Text Only | Print | Product List | Glossary On
Versions: 1 2 3 4 5 6 7 8 9 10 11 12 13 14 15 16 17 18 19 20
000
FTUS42 KFFC 201137
TAFFTY
TAF
KFTY 201137Z 2012/2112 00000KT P6SM SKC
     FM201900 14006KT P6SM SCT050
     FM202200 16005KT P6SM BKN060
     FM210400 00000KT P6SM BKN070
     FM210900 00000KT 6SM BR BKN030=

USA.gov is the U.S. government's official web portal to all federal, state and local government web resources and services.